sensor_id;sensor_type;location;lat;lon;timestamp;P1;durP1;ratioP1;P2;durP2;ratioP2
30458;SDS011;17254;50.976;7.034;2023-02-01T00:00:02;16.50;;;10.18;;
30458;SDS011;17254;50.976;7.034;2023-02-01T00:00:10;17.77;;;10.50;;
30458;SDS011;17254;50.976;7.034;2023-02-01T00:00:17;18.30;;;10.60;;
30458;SDS011;17254;50.976;7.034;2023-02-01T00:00:23;18.57;;;10.90;;
30458;SDS011;17254;50.976;7.034;2023-02-01T00:00:29;18.85;;;11.25;;
30458;SDS011;17254;50.976;7.034;2023-02-01T00:00:35;18.88;;;11.02;;
30458;SDS011;17254;50.976;7.034;2023-02-01T00:00:41;16.13;;;10.60;;
30458;SDS011;17254;50.976;7.034;2023-02-01T00:00:47;16.00;;;10.50;;
30458;SDS011;17254;50.976;7.034;2023-02-01T00:00:53;16.33;;;10.52;;
30458;SDS011;17254;50.976;7.034;2023-02-01T00:01:04;16.10;;;10.02;;
30458;SDS011;17254;50.976;7.034;2023-02-01T00:01:11;18.34;;;10.12;;
30458;SDS011;17254;50.976;7.034;2023-02-01T00:01:17;20.33;;;10.30;;
30458;SDS011;17254;50.976;7.034;2023-02-01T00:01:23;19.63;;;10.25;;
30458;SDS011;17254;50.976;7.034;2023-02-01T00:01:29;20.33;;;10.40;;
30458;SDS011;17254;50.976;7.034;2023-02-01T00:01:35;20.20;;;10.20;;
30458;SDS011;17254;50.976;7.034;2023-02-01T00:01:41;19.13;;;9.95;;
30458;SDS011;17254;50.976;7.034;2023-02-01T00:01:47;19.35;;;9.80;;
30458;SDS011;17254;50.976;7.034;2023-02-01T00:01:53;20.48;;;9.82;;
30458;SDS011;17254;50.976;7.034;2023-02-01T00:01:59;19.77;;;9.70;;
30458;SDS011;17254;50.976;7.034;2023-02-01T00:02:05;19.10;;;9.57;;
30458;SDS011;17254;50.976;7.034;2023-02-01T00:02:12;18.94;;;9.56;;
30458;SDS011;17254;50.976;7.034;2023-02-01T00:02:18;17.30;;;9.52;;
30458;SDS011;17254;50.976;7.034;2023-02-01T00:02:24;16.67;;;9.40;;
30458;SDS011;17254;50.976;7.034;2023-02-01T00:02:30;16.00;;;9.27;;
30458;SDS011;17254;50.976;7.034;2023-02-01T00:02:35;15.63;;;9.27;;
30458;SDS011;17254;50.976;7.034;2023-02-01T00:02:45;16.05;;;9.39;;
30458;SDS011;17254;50.976;7.034;2023-02-01T00:02:51;17.52;;;9.60;;
30458;SDS011;17254;50.976;7.034;2023-02-01T00:02:58;19.45;;;9.77;;
30458;SDS011;17254;50.976;7.034;2023-02-01T00:03:04;21.37;;;10.13;;
30458;SDS011;17254;50.976;7.034;2023-02-01T00:03:11;22.00;;;10.17;;
30458;SDS011;17254;50.976;7.034;2023-02-01T00:03:18;19.97;;;9.70;;
30458;SDS011;17254;50.976;7.034;2023-02-01T00:03:24;19.37;;;9.60;;
30458;SDS011;17254;50.976;7.034;2023-02-01T00:03:31;17.78;;;9.24;;
30458;SDS011;17254;50.976;7.034;2023-02-01T00:03:37;18.13;;;9.18;;
30458;SDS011;17254;50.976;7.034;2023-02-01T00:03:43;17.10;;;9.25;;
30458;SDS011;17254;50.976;7.034;2023-02-01T00:03:49;16.80;;;9.13;;
30458;SDS011;17254;50.976;7.034;2023-02-01T00:03:55;16.92;;;9.00;;
30458;SDS011;17254;50.976;7.034;2023-02-01T00:04:01;17.02;;;9.00;;
30458;SDS011;17254;50.976;7.034;2023-02-01T00:04:07;15.88;;;8.88;;
30458;SDS011;17254;50.976;7.034;2023-02-01T00:04:12;15.73;;;8.77;;
30458;SDS011;17254;50.976;7.034;2023-02-01T00:04:18;15.85;;;8.80;;
30458;SDS011;17254;50.976;7.034;2023-02-01T00:04:25;16.22;;;8.90;;
30458;SDS011;17254;50.976;7.034;2023-02-01T00:04:31;17.87;;;9.00;;
30458;SDS011;17254;50.976;7.034;2023-02-01T00:04:37;18.27;;;9.15;;
30458;SDS011;17254;50.976;7.034;2023-02-01T00:04:43;18.67;;;9.20;;
30458;SDS011;17254;50.976;7.034;2023-02-01T00:04:50;18.56;;;9.38;;
30458;SDS011;17254;50.976;7.034;2023-02-01T00:04:56;19.35;;;9.55;;
30458;SDS011;17254;50.976;7.034;2023-02-01T00:05:02;17.42;;;9.27;;
30458;SDS011;17254;50.976;7.034;2023-02-01T00:05:08;16.77;;;9.20;;
30458;SDS011;17254;50.976;7.034;2023-02-01T00:05:15;16.46;;;9.20;;
30458;SDS011;17254;50.976;7.034;2023-02-01T00:05:21;17.23;;;8.97;;
30458;SDS011;17254;50.976;7.034;2023-02-01T00:05:27;17.27;;;9.07;;
30458;SDS011;17254;50.976;7.034;2023-02-01T00:05:33;18.60;;;9.27;;
30458;SDS011;17254;50.976;7.034;2023-02-01T00:05:39;18.77;;;9.13;;
30458;SDS011;17254;50.976;7.034;2023-02-01T00:05:45;18.65;;;9.13;;
30458;SDS011;17254;50.976;7.034;2023-02-01T00:06:00;16.56;;;9.27;;
30458;SDS011;17254;50.976;7.034;2023-02-01T00:06:07;14.86;;;9.52;;
30458;SDS011;17254;50.976;7.034;2023-02-01T00:06:13;16.17;;;9.80;;
30458;SDS011;17254;50.976;7.034;2023-02-01T00:06:20;18.15;;;9.93;;
30458;SDS011;17254;50.976;7.034;2023-02-01T00:06:26;19.50;;;9.90;;
30458;SDS011;17254;50.976;7.034;2023-02-01T00:06:31;21.13;;;10.02;;
30458;SDS011;17254;50.976;7.034;2023-02-01T00:06:37;20.75;;;10.00;;
30458;SDS011;17254;50.976;7.034;2023-02-01T00:06:43;19.90;;;10.00;;
30458;SDS011;17254;50.976;7.034;2023-02-01T00:06:49;17.85;;;9.88;;
30458;SDS011;17254;50.976;7.034;2023-02-01T00:06:55;19.03;;;10.03;;
30458;SDS011;17254;50.976;7.034;2023-02-01T00:07:01;19.35;;;9.85;;
30458;SDS011;17254;50.976;7.034;2023-02-01T00:07:07;19.38;;;9.90;;
30458;SDS011;17254;50.976;7.034;2023-02-01T00:07:13;20.20;;;10.25;;
30458;SDS011;17254;50.976;7.034;2023-02-01T00:07:18;20.88;;;10.20;;
30458;SDS011;17254;50.976;7.034;2023-02-01T00:07:24;19.20;;;10.00;;
30458;SDS011;17254;50.976;7.034;2023-02-01T00:07:30;18.33;;;10.00;;
30458;SDS011;17254;50.976;7.034;2023-02-01T00:07:37;18.32;;;10.16;;
30458;SDS011;17254;50.976;7.034;2023-02-01T00:07:46;16.75;;;9.50;;
30458;SDS011;17254;50.976;7.034;2023-02-01T00:07:52;16.71;;;9.64;;
30458;SDS011;17254;50.976;7.034;2023-02-01T00:07:58;15.40;;;9.63;;
30458;SDS011;17254;50.976;7.034;2023-02-01T00:08:04;15.27;;;9.60;;
30458;SDS011;17254;50.976;7.034;2023-02-01T00:08:10;17.20;;;9.85;;
30458;SDS011;17254;50.976;7.034;2023-02-01T00:08:16;18.80;;;9.90;;
30458;SDS011;17254;50.976;7.034;2023-02-01T00:08:22;19.37;;;10.10;;
30458;SDS011;17254;50.976;7.034;2023-02-01T00:08:28;20.10;;;10.25;;
30458;SDS011;17254;50.976;7.034;2023-02-01T00:08:34;21.10;;;10.40;;
30458;SDS011;17254;50.976;7.034;2023-02-01T00:08:40;20.60;;;10.32;;
30458;SDS011;17254;50.976;7.034;2023-02-01T00:08:46;20.02;;;10.25;;
30458;SDS011;17254;50.976;7.034;2023-02-01T00:08:52;19.10;;;9.98;;
30458;SDS011;17254;50.976;7.034;2023-02-01T00:08:59;20.77;;;10.00;;
30458;SDS011;17254;50.976;7.034;2023-02-01T00:09:05;19.53;;;9.63;;
30458;SDS011;17254;50.976;7.034;2023-02-01T00:09:12;18.75;;;9.65;;
30458;SDS011;17254;50.976;7.034;2023-02-01T00:09:19;18.00;;;9.74;;
30458;SDS011;17254;50.976;7.034;2023-02-01T00:09:25;16.73;;;9.63;;
30458;SDS011;17254;50.976;7.034;2023-02-01T00:09:31;15.77;;;9.77;;
30458;SDS011;17254;50.976;7.034;2023-02-01T00:09:37;15.63;;;9.70;;
30458;SDS011;17254;50.976;7.034;2023-02-01T00:09:43;16.05;;;9.90;;
30458;SDS011;17254;50.976;7.034;2023-02-01T00:09:49;15.68;;;9.98;;
30458;SDS011;17254;50.976;7.034;2023-02-01T00:09:55;15.93;;;9.83;;
30458;SDS011;17254;50.976;7.034;2023-02-01T00:10:01;16.42;;;9.70;;
30458;SDS011;17254;50.976;7.034;2023-02-01T00:10:09;16.43;;;9.78;;
30458;SDS011;17254;50.976;7.034;2023-02-01T00:10:16;16.58;;;9.46;;
30458;SDS011;17254;50.976;7.034;2023-02-01T00:10:23;18.12;;;9.53;;
30458;SDS011;17254;50.976;7.034;2023-02-01T00:10:29;17.42;;;9.65;;
30458;SDS011;17254;50.976;7.034;2023-02-01T00:10:35;16.77;;;9.57;;
30458;SDS011;17254;50.976;7.034;2023-02-01T00:10:41;16.27;;;9.38;;
30458;SDS011;17254;50.976;7.034;2023-02-01T00:10:47;15.07;;;9.32;;
30458;SDS011;17254;50.976;7.034;2023-02-01T00:10:57;14.57;;;9.07;;
30458;SDS011;17254;50.976;7.034;2023-02-01T00:11:04;15.82;;;9.39;;
30458;SDS011;17254;50.976;7.034;2023-02-01T00:11:13;17.06;;;9.61;;
30458;SDS011;17254;50.976;7.034;2023-02-01T00:11:19;18.23;;;9.95;;
30458;SDS011;17254;50.976;7.034;2023-02-01T00:11:25;17.77;;;9.90;;
30458;SDS011;17254;50.976;7.034;2023-02-01T00:11:31;18.85;;;9.73;;
30458;SDS011;17254;50.976;7.034;2023-02-01T00:11:38;19.24;;;9.82;;
30458;SDS011;17254;50.976;7.034;2023-02-01T00:11:44;20.20;;;10.00;;
30458;SDS011;17254;50.976;7.034;2023-02-01T00:11:50;19.00;;;9.63;;
30458;SDS011;17254;50.976;7.034;2023-02-01T00:11:56;18.75;;;9.65;;
30458;SDS011;17254;50.976;7.034;2023-02-01T00:12:04;17.67;;;9.67;;
30458;SDS011;17254;50.976;7.034;2023-02-01T00:12:10;17.73;;;9.70;;
30458;SDS011;17254;50.976;7.034;2023-02-01T00:12:17;19.52;;;10.10;;
30458;SDS011;17254;50.976;7.034;2023-02-01T00:12:24;19.07;;;10.07;;
30458;SDS011;17254;50.976;7.034;2023-02-01T00:12:31;18.73;;;10.53;;
30458;SDS011;17254;50.976;7.034;2023-02-01T00:12:37;19.16;;;10.54;;
30458;SDS011;17254;50.976;7.034;2023-02-01T00:12:44;17.50;;;10.38;;
30458;SDS011;17254;50.976;7.034;2023-02-01T00:12:51;17.23;;;10.30;;
30458;SDS011;17254;50.976;7.034;2023-02-01T00:12:59;17.47;;;10.40;;
30458;SDS011;17254;50.976;7.034;2023-02-01T00:13:06;18.06;;;10.30;;
30458;SDS011;17254;50.976;7.034;2023-02-01T00:13:13;18.60;;;10.70;;
30458;SDS011;17254;50.976;7.034;2023-02-01T00:13:20;20.13;;;10.70;;
30458;SDS011;17254;50.976;7.034;2023-02-01T00:13:30;20.55;;;10.90;;
30458;SDS011;17254;50.976;7.034;2023-02-01T00:13:41;19.91;;;10.51;;
30458;SDS011;17254;50.976;7.034;2023-02-01T00:13:48;19.00;;;10.56;;
30458;SDS011;17254;50.976;7.034;2023-02-01T00:13:56;19.20;;;10.60;;
30458;SDS011;17254;50.976;7.034;2023-02-01T00:14:03;21.85;;;10.80;;
30458;SDS011;17254;50.976;7.034;2023-02-01T00:14:10;21.24;;;10.84;;
30458;SDS011;17254;50.976;7.034;2023-02-01T00:14:17;20.30;;;10.53;;
30458;SDS011;17254;50.976;7.034;2023-02-01T00:14:24;20.13;;;10.90;;
30458;SDS011;17254;50.976;7.034;2023-02-01T00:14:35;18.40;;;10.73;;
30458;SDS011;17254;50.976;7.034;2023-02-01T00:14:44;19.41;;;10.80;;
30458;SDS011;17254;50.976;7.034;2023-02-01T00:14:51;20.50;;;10.74;;
30458;SDS011;17254;50.976;7.034;2023-02-01T00:14:59;19.18;;;10.18;;
30458;SDS011;17254;50.976;7.034;2023-02-01T00:15:08;19.60;;;9.93;;
30458;SDS011;17254;50.976;7.034;2023-02-01T00:15:15;18.07;;;9.33;;
30458;SDS011;17254;50.976;7.034;2023-02-01T00:15:22;17.47;;;9.20;;
30458;SDS011;17254;50.976;7.034;2023-02-01T00:15:29;18.63;;;9.30;;
30458;SDS011;17254;50.976;7.034;2023-02-01T00:15:35;19.32;;;9.32;;
30458;SDS011;17254;50.976;7.034;2023-02-01T00:15:42;20.25;;;9.70;;
30458;SDS011;17254;50.976;7.034;2023-02-01T00:15:49;20.24;;;9.80;;
30458;SDS011;17254;50.976;7.034;2023-02-01T00:16:02;19.87;;;9.83;;
30458;SDS011;17254;50.976;7.034;2023-02-01T00:16:10;19.73;;;9.65;;
30458;SDS011;17254;50.976;7.034;2023-02-01T00:16:22;19.65;;;9.44;;
30458;SDS011;17254;50.976;7.034;2023-02-01T00:16:31;18.67;;;9.67;;
30458;SDS011;17254;50.976;7.034;2023-02-01T00:16:38;17.53;;;9.83;;
30458;SDS011;17254;50.976;7.034;2023-02-01T00:16:44;18.52;;;9.90;;
30458;SDS011;17254;50.976;7.034;2023-02-01T00:16:51;19.80;;;10.10;;
30458;SDS011;17254;50.976;7.034;2023-02-01T00:16:58;20.00;;;10.15;;
30458;SDS011;17254;50.976;7.034;2023-02-01T00:17:05;19.85;;;10.10;;
30458;SDS011;17254;50.976;7.034;2023-02-01T00:17:12;17.20;;;9.77;;
30458;SDS011;17254;50.976;7.034;2023-02-01T00:17:20;16.02;;;9.67;;
30458;SDS011;17254;50.976;7.034;2023-02-01T00:17:27;17.00;;;9.37;;
30458;SDS011;17254;50.976;7.034;2023-02-01T00:17:34;17.90;;;9.07;;
30458;SDS011;17254;50.976;7.034;2023-02-01T00:17:45;19.89;;;9.51;;
30458;SDS011;17254;50.976;7.034;2023-02-01T00:17:53;20.70;;;10.27;;
30458;SDS011;17254;50.976;7.034;2023-02-01T00:18:03;20.54;;;10.38;;
30458;SDS011;17254;50.976;7.034;2023-02-01T00:18:10;18.50;;;10.00;;
30458;SDS011;17254;50.976;7.034;2023-02-01T00:18:16;17.73;;;9.50;;
30458;SDS011;17254;50.976;7.034;2023-02-01T00:18:23;17.63;;;8.83;;
30458;SDS011;17254;50.976;7.034;2023-02-01T00:18:30;17.72;;;8.72;;
30458;SDS011;17254;50.976;7.034;2023-02-01T00:18:37;19.77;;;8.97;;
30458;SDS011;17254;50.976;7.034;2023-02-01T00:18:44;19.70;;;9.06;;
30458;SDS011;17254;50.976;7.034;2023-02-01T00:18:52;18.96;;;9.42;;
30458;SDS011;17254;50.976;7.034;2023-02-01T00:19:04;20.46;;;10.03;;
30458;SDS011;17254;50.976;7.034;2023-02-01T00:19:13;19.20;;;10.05;;
30458;SDS011;17254;50.976;7.034;2023-02-01T00:19:21;19.37;;;10.15;;
30458;SDS011;17254;50.976;7.034;2023-02-01T00:19:28;18.52;;;10.26;;
30458;SDS011;17254;50.976;7.034;2023-02-01T00:19:34;18.90;;;10.20;;
30458;SDS011;17254;50.976;7.034;2023-02-01T00:19:41;19.23;;;10.38;;
30458;SDS011;17254;50.976;7.034;2023-02-01T00:19:51;17.90;;;10.10;;
30458;SDS011;17254;50.976;7.034;2023-02-01T00:20:06;17.29;;;9.82;;
30458;SDS011;17254;50.976;7.034;2023-02-01T00:20:14;18.59;;;10.39;;
30458;SDS011;17254;50.976;7.034;2023-02-01T00:20:25;20.69;;;10.87;;
30458;SDS011;17254;50.976;7.034;2023-02-01T00:20:33;21.83;;;10.53;;
30458;SDS011;17254;50.976;7.034;2023-02-01T00:20:44;21.33;;;10.20;;
30458;SDS011;17254;50.976;7.034;2023-02-01T00:20:51;19.64;;;9.57;;
30458;SDS011;17254;50.976;7.034;2023-02-01T00:20:59;19.10;;;9.53;;
30458;SDS011;17254;50.976;7.034;2023-02-01T00:21:09;18.82;;;9.78;;
30458;SDS011;17254;50.976;7.034;2023-02-01T00:21:17;20.01;;;10.46;;
30458;SDS011;17254;50.976;7.034;2023-02-01T00:21:25;20.23;;;10.90;;
30458;SDS011;17254;50.976;7.034;2023-02-01T00:21:33;21.27;;;11.10;;
30458;SDS011;17254;50.976;7.034;2023-02-01T00:21:40;20.03;;;10.77;;
30458;SDS011;17254;50.976;7.034;2023-02-01T00:21:46;18.74;;;10.14;;
30458;SDS011;17254;50.976;7.034;2023-02-01T00:21:54;18.06;;;9.96;;
30458;SDS011;17254;50.976;7.034;2023-02-01T00:22:01;18.27;;;9.93;;
30458;SDS011;17254;50.976;7.034;2023-02-01T00:22:08;17.53;;;9.92;;
30458;SDS011;17254;50.976;7.034;2023-02-01T00:22:15;19.88;;;10.36;;
30458;SDS011;17254;50.976;7.034;2023-02-01T00:22:23;20.30;;;10.27;;
30458;SDS011;17254;50.976;7.034;2023-02-01T00:22:29;21.00;;;10.30;;
30458;SDS011;17254;50.976;7.034;2023-02-01T00:22:36;20.03;;;10.10;;
30458;SDS011;17254;50.976;7.034;2023-02-01T00:22:46;18.42;;;9.88;;
30458;SDS011;17254;50.976;7.034;2023-02-01T00:22:53;19.55;;;10.05;;
30458;SDS011;17254;50.976;7.034;2023-02-01T00:23:00;19.68;;;10.76;;
30458;SDS011;17254;50.976;7.034;2023-02-01T00:23:07;20.80;;;11.20;;
30458;SDS011;17254;50.976;7.034;2023-02-01T00:23:15;20.02;;;11.47;;
30458;SDS011;17254;50.976;7.034;2023-02-01T00:23:25;16.87;;;11.50;;
30458;SDS011;17254;50.976;7.034;2023-02-01T00:23:32;17.83;;;11.27;;
30458;SDS011;17254;50.976;7.034;2023-02-01T00:23:42;19.00;;;10.97;;
30458;SDS011;17254;50.976;7.034;2023-02-01T00:23:49;19.72;;;10.62;;
30458;SDS011;17254;50.976;7.034;2023-02-01T00:23:56;20.28;;;10.50;;
30458;SDS011;17254;50.976;7.034;2023-02-01T00:24:04;18.93;;;10.08;;
30458;SDS011;17254;50.976;7.034;2023-02-01T00:24:12;17.53;;;10.00;;
30458;SDS011;17254;50.976;7.034;2023-02-01T00:24:19;17.52;;;10.10;;
30458;SDS011;17254;50.976;7.034;2023-02-01T00:24:26;17.30;;;10.10;;
30458;SDS011;17254;50.976;7.034;2023-02-01T00:24:33;17.52;;;10.15;;
30458;SDS011;17254;50.976;7.034;2023-02-01T00:24:40;17.78;;;10.10;;
30458;SDS011;17254;50.976;7.034;2023-02-01T00:24:47;17.65;;;9.88;;
30458;SDS011;17254;50.976;7.034;2023-02-01T00:24:53;17.77;;;10.10;;
30458;SDS011;17254;50.976;7.034;2023-02-01T00:25:00;17.60;;;10.23;;
30458;SDS011;17254;50.976;7.034;2023-02-01T00:25:08;17.86;;;10.10;;
30458;SDS011;17254;50.976;7.034;2023-02-01T00:25:16;17.00;;;9.83;;
30458;SDS011;17254;50.976;7.034;2023-02-01T00:25:22;17.20;;;9.33;;
30458;SDS011;17254;50.976;7.034;2023-02-01T00:25:29;17.63;;;9.00;;
30458;SDS011;17254;50.976;7.034;2023-02-01T00:25:37;18.00;;;9.20;;
30458;SDS011;17254;50.976;7.034;2023-02-01T00:25:45;18.47;;;9.20;;
30458;SDS011;17254;50.976;7.034;2023-02-01T00:25:52;17.92;;;9.38;;
30458;SDS011;17254;50.976;7.034;2023-02-01T00:26:00;18.00;;;9.80;;
30458;SDS011;17254;50.976;7.034;2023-02-01T00:26:13;18.47;;;9.87;;
30458;SDS011;17254;50.976;7.034;2023-02-01T00:26:22;19.05;;;10.10;;
30458;SDS011;17254;50.976;7.034;2023-02-01T00:26:36;18.91;;;9.79;;
30458;SDS011;17254;50.976;7.034;2023-02-01T00:26:44;18.23;;;9.62;;
30458;SDS011;17254;50.976;7.034;2023-02-01T00:26:52;18.90;;;10.29;;
30458;SDS011;17254;50.976;7.034;2023-02-01T00:26:59;18.83;;;10.60;;
30458;SDS011;17254;50.976;7.034;2023-02-01T00:27:07;19.43;;;10.83;;
30458;SDS011;17254;50.976;7.034;2023-02-01T00:27:13;18.23;;;10.77;;
30458;SDS011;17254;50.976;7.034;2023-02-01T00:27:23;19.52;;;10.74;;
30458;SDS011;17254;50.976;7.034;2023-02-01T00:27:30;20.14;;;10.98;;
30458;SDS011;17254;50.976;7.034;2023-02-01T00:27:37;20.98;;;10.95;;
30458;SDS011;17254;50.976;7.034;2023-02-01T00:27:47;23.40;;;11.18;;
30458;SDS011;17254;50.976;7.034;2023-02-01T00:27:55;23.11;;;11.11;;
30458;SDS011;17254;50.976;7.034;2023-02-01T00:28:03;22.33;;;10.88;;
30458;SDS011;17254;50.976;7.034;2023-02-01T00:28:10;19.60;;;10.70;;
30458;SDS011;17254;50.976;7.034;2023-02-01T00:28:17;17.90;;;10.88;;
30458;SDS011;17254;50.976;7.034;2023-02-01T00:28:24;18.08;;;11.18;;
30458;SDS011;17254;50.976;7.034;2023-02-01T00:28:30;17.70;;;11.35;;
30458;SDS011;17254;50.976;7.034;2023-02-01T00:28:37;18.65;;;11.35;;
30458;SDS011;17254;50.976;7.034;2023-02-01T00:28:43;20.30;;;11.32;;
30458;SDS011;17254;50.976;7.034;2023-02-01T00:28:49;21.77;;;11.43;;
30458;SDS011;17254;50.976;7.034;2023-02-01T00:28:55;21.50;;;11.40;;
30458;SDS011;17254;50.976;7.034;2023-02-01T00:29:01;21.95;;;11.38;;
30458;SDS011;17254;50.976;7.034;2023-02-01T00:29:10;22.00;;;11.43;;
30458;SDS011;17254;50.976;7.034;2023-02-01T00:29:19;21.44;;;11.41;;
30458;SDS011;17254;50.976;7.034;2023-02-01T00:29:25;22.78;;;11.44;;
30458;SDS011;17254;50.976;7.034;2023-02-01T00:29:31;22.52;;;11.15;;
30458;SDS011;17254;50.976;7.034;2023-02-01T00:29:38;22.88;;;11.10;;
30458;SDS011;17254;50.976;7.034;2023-02-01T00:29:44;23.93;;;11.07;;
30458;SDS011;17254;50.976;7.034;2023-02-01T00:29:50;23.55;;;10.90;;
30458;SDS011;17254;50.976;7.034;2023-02-01T00:29:56;22.10;;;10.65;;
30458;SDS011;17254;50.976;7.034;2023-02-01T00:30:02;22.83;;;11.02;;
30458;SDS011;17254;50.976;7.034;2023-02-01T00:30:11;22.22;;;11.24;;
30458;SDS011;17254;50.976;7.034;2023-02-01T00:30:18;21.03;;;10.77;;
30458;SDS011;17254;50.976;7.034;2023-02-01T00:30:25;21.00;;;10.80;;
30458;SDS011;17254;50.976;7.034;2023-02-01T00:30:32;20.56;;;10.58;;
30458;SDS011;17254;50.976;7.034;2023-02-01T00:30:39;23.62;;;10.60;;
30458;SDS011;17254;50.976;7.034;2023-02-01T00:30:55;23.70;;;10.97;;
30458;SDS011;17254;50.976;7.034;2023-02-01T00:31:03;22.14;;;10.77;;
30458;SDS011;17254;50.976;7.034;2023-02-01T00:31:13;16.77;;;9.66;;
30458;SDS011;17254;50.976;7.034;2023-02-01T00:31:20;15.30;;;9.07;;
30458;SDS011;17254;50.976;7.034;2023-02-01T00:31:26;16.03;;;9.07;;
30458;SDS011;17254;50.976;7.034;2023-02-01T00:31:32;15.90;;;9.47;;
30458;SDS011;17254;50.976;7.034;2023-02-01T00:31:38;16.13;;;10.00;;
30458;SDS011;17254;50.976;7.034;2023-02-01T00:31:44;15.90;;;10.95;;
30458;SDS011;17254;50.976;7.034;2023-02-01T00:31:51;17.38;;;11.40;;
30458;SDS011;17254;50.976;7.034;2023-02-01T00:31:57;19.55;;;12.00;;
30458;SDS011;17254;50.976;7.034;2023-02-01T00:32:03;19.52;;;11.68;;
30458;SDS011;17254;50.976;7.034;2023-02-01T00:32:09;19.55;;;11.05;;
30458;SDS011;17254;50.976;7.034;2023-02-01T00:32:15;19.78;;;10.64;;
30458;SDS011;17254;50.976;7.034;2023-02-01T00:32:22;20.20;;;10.30;;
30458;SDS011;17254;50.976;7.034;2023-02-01T00:32:28;19.10;;;10.17;;
30458;SDS011;17254;50.976;7.034;2023-02-01T00:32:37;22.04;;;10.64;;
30458;SDS011;17254;50.976;7.034;2023-02-01T00:32:47;23.35;;;10.52;;
30458;SDS011;17254;50.976;7.034;2023-02-01T00:32:54;21.63;;;10.27;;
30458;SDS011;17254;50.976;7.034;2023-02-01T00:33:01;21.70;;;10.23;;
30458;SDS011;17254;50.976;7.034;2023-02-01T00:33:07;18.70;;;9.90;;
30458;SDS011;17254;50.976;7.034;2023-02-01T00:33:15;18.70;;;10.22;;
30458;SDS011;17254;50.976;7.034;2023-02-01T00:33:22;18.74;;;10.08;;
30458;SDS011;17254;50.976;7.034;2023-02-01T00:33:28;20.04;;;10.40;;
30458;SDS011;17254;50.976;7.034;2023-02-01T00:33:36;20.05;;;10.35;;
30458;SDS011;17254;50.976;7.034;2023-02-01T00:33:46;19.37;;;10.27;;
30458;SDS011;17254;50.976;7.034;2023-02-01T00:33:52;19.31;;;10.66;;
30458;SDS011;17254;50.976;7.034;2023-02-01T00:33:59;18.25;;;10.75;;
30458;SDS011;17254;50.976;7.034;2023-02-01T00:34:09;17.83;;;10.78;;
30458;SDS011;17254;50.976;7.034;2023-02-01T00:34:18;16.85;;;10.71;;
30458;SDS011;17254;50.976;7.034;2023-02-01T00:34:26;16.73;;;10.53;;
30458;SDS011;17254;50.976;7.034;2023-02-01T00:34:33;16.40;;;10.60;;
30458;SDS011;17254;50.976;7.034;2023-02-01T00:34:40;16.87;;;10.50;;
30458;SDS011;17254;50.976;7.034;2023-02-01T00:34:50;18.61;;;10.59;;
30458;SDS011;17254;50.976;7.034;2023-02-01T00:35:00;19.96;;;10.66;;
30458;SDS011;17254;50.976;7.034;2023-02-01T00:35:08;19.93;;;10.60;;
30458;SDS011;17254;50.976;7.034;2023-02-01T00:35:16;19.87;;;10.45;;
30458;SDS011;17254;50.976;7.034;2023-02-01T00:35:23;18.42;;;10.64;;
30458;SDS011;17254;50.976;7.034;2023-02-01T00:35:34;18.96;;;11.20;;
30458;SDS011;17254;50.976;7.034;2023-02-01T00:35:41;19.87;;;11.69;;
30458;SDS011;17254;50.976;7.034;2023-02-01T00:35:48;19.02;;;11.27;;
30458;SDS011;17254;50.976;7.034;2023-02-01T00:35:56;19.70;;;10.88;;
30458;SDS011;17254;50.976;7.034;2023-02-01T00:36:06;19.05;;;10.58;;
30458;SDS011;17254;50.976;7.034;2023-02-01T00:36:15;18.17;;;9.88;;
30458;SDS011;17254;50.976;7.034;2023-02-01T00:36:23;17.18;;;10.04;;
30458;SDS011;17254;50.976;7.034;2023-02-01T00:36:30;17.87;;;9.97;;
30458;SDS011;17254;50.976;7.034;2023-02-01T00:36:37;19.15;;;10.45;;
30458;SDS011;17254;50.976;7.034;2023-02-01T00:36:44;18.43;;;10.33;;
30458;SDS011;17254;50.976;7.034;2023-02-01T00:36:54;18.46;;;10.07;;
30458;SDS011;17254;50.976;7.034;2023-02-01T00:37:01;16.38;;;9.45;;
30458;SDS011;17254;50.976;7.034;2023-02-01T00:37:08;16.30;;;9.02;;
30458;SDS011;17254;50.976;7.034;2023-02-01T00:37:16;16.85;;;9.22;;
30458;SDS011;17254;50.976;7.034;2023-02-01T00:37:23;16.06;;;9.24;;
30458;SDS011;17254;50.976;7.034;2023-02-01T00:37:29;17.33;;;10.17;;
30458;SDS011;17254;50.976;7.034;2023-02-01T00:37:37;16.47;;;10.33;;
30458;SDS011;17254;50.976;7.034;2023-02-01T00:37:45;16.88;;;10.80;;
30458;SDS011;17254;50.976;7.034;2023-02-01T00:37:54;17.37;;;11.03;;
30458;SDS011;17254;50.976;7.034;2023-02-01T00:38:04;18.59;;;10.87;;
30458;SDS011;17254;50.976;7.034;2023-02-01T00:38:11;18.70;;;10.68;;
30458;SDS011;17254;50.976;7.034;2023-02-01T00:38:17;18.62;;;10.28;;
30458;SDS011;17254;50.976;7.034;2023-02-01T00:38:24;18.56;;;10.02;;
30458;SDS011;17254;50.976;7.034;2023-02-01T00:38:33;16.87;;;9.73;;
30458;SDS011;17254;50.976;7.034;2023-02-01T00:38:42;17.10;;;9.62;;
30458;SDS011;17254;50.976;7.034;2023-02-01T00:38:50;18.26;;;9.94;;
30458;SDS011;17254;50.976;7.034;2023-02-01T00:38:58;19.30;;;10.50;;
30458;SDS011;17254;50.976;7.034;2023-02-01T00:39:05;19.80;;;10.62;;
30458;SDS011;17254;50.976;7.034;2023-02-01T00:39:12;18.28;;;10.56;;
30458;SDS011;17254;50.976;7.034;2023-02-01T00:39:19;17.33;;;10.47;;
30458;SDS011;17254;50.976;7.034;2023-02-01T00:39:25;17.43;;;10.13;;
30458;SDS011;17254;50.976;7.034;2023-02-01T00:39:32;16.98;;;10.10;;
30458;SDS011;17254;50.976;7.034;2023-02-01T00:39:39;17.72;;;10.16;;
30458;SDS011;17254;50.976;7.034;2023-02-01T00:39:47;17.68;;;10.17;;
30458;SDS011;17254;50.976;7.034;2023-02-01T00:39:55;17.28;;;9.90;;
30458;SDS011;17254;50.976;7.034;2023-02-01T00:40:02;16.54;;;9.84;;
30458;SDS011;17254;50.976;7.034;2023-02-01T00:40:10;15.58;;;9.50;;
30458;SDS011;17254;50.976;7.034;2023-02-01T00:40:18;15.33;;;9.77;;
30458;SDS011;17254;50.976;7.034;2023-02-01T00:40:28;15.43;;;10.07;;
30458;SDS011;17254;50.976;7.034;2023-02-01T00:40:35;15.20;;;10.20;;
30458;SDS011;17254;50.976;7.034;2023-02-01T00:40:43;15.02;;;10.22;;
30458;SDS011;17254;50.976;7.034;2023-02-01T00:40:50;15.60;;;9.86;;
30458;SDS011;17254;50.976;7.034;2023-02-01T00:41:01;16.22;;;9.54;;
30458;SDS011;17254;50.976;7.034;2023-02-01T00:41:10;17.24;;;9.41;;
30458;SDS011;17254;50.976;7.034;2023-02-01T00:41:19;18.40;;;9.54;;
30458;SDS011;17254;50.976;7.034;2023-02-01T00:41:27;18.55;;;9.77;;
30458;SDS011;17254;50.976;7.034;2023-02-01T00:41:34;18.30;;;10.27;;
30458;SDS011;17254;50.976;7.034;2023-02-01T00:41:40;18.15;;;10.50;;
30458;SDS011;17254;50.976;7.034;2023-02-01T00:41:49;17.07;;;10.56;;
30458;SDS011;17254;50.976;7.034;2023-02-01T00:41:56;16.45;;;10.50;;
30458;SDS011;17254;50.976;7.034;2023-02-01T00:42:03;17.40;;;10.43;;
30458;SDS011;17254;50.976;7.034;2023-02-01T00:42:10;16.48;;;10.18;;
30458;SDS011;17254;50.976;7.034;2023-02-01T00:42:16;17.50;;;9.80;;
30458;SDS011;17254;50.976;7.034;2023-02-01T00:42:25;18.52;;;9.93;;
30458;SDS011;17254;50.976;7.034;2023-02-01T00:42:32;17.64;;;9.90;;
30458;SDS011;17254;50.976;7.034;2023-02-01T00:42:39;18.50;;;9.74;;
30458;SDS011;17254;50.976;7.034;2023-02-01T00:42:46;18.72;;;10.04;;
30458;SDS011;17254;50.976;7.034;2023-02-01T00:42:53;18.27;;;9.80;;
30458;SDS011;17254;50.976;7.034;2023-02-01T00:43:03;20.49;;;9.66;;